createdAt,value
2022-12-25T00:01:52.181Z,48.60
2022-12-25T00:04:18.597Z,48.40
2022-12-25T00:06:45.006Z,41.22
2022-12-25T00:09:11.307Z,50.83
2022-12-25T00:11:37.861Z,40.83
2022-12-25T00:14:04.197Z,48.92
2022-12-25T00:16:30.583Z,47.90
2022-12-25T00:18:57.480Z,50.30
2022-12-25T00:21:25.187Z,48.40
2022-12-25T00:23:55.747Z,49.35
2022-12-25T00:26:22.730Z,34.47
2022-12-25T00:28:54.841Z,43.88
2022-12-25T00:31:21.707Z,55.05
2022-12-25T00:33:49.589Z,33.45
2022-12-25T00:36:18.268Z,40.97
2022-12-25T00:38:45.602Z,39.03
2022-12-25T00:41:18.803Z,43.10
2022-12-25T00:43:45.187Z,44.95
2022-12-25T00:46:13.139Z,44.15
2022-12-25T00:48:40.015Z,50.20
2022-12-25T00:51:10.371Z,41.42
2022-12-25T00:53:36.794Z,45.50
2022-12-25T00:56:06.313Z,47.63
2022-12-25T00:58:34.641Z,45.90
2022-12-25T01:01:01.300Z,42.67
2022-12-25T01:03:28.377Z,38.17
2022-12-25T01:06:06.909Z,40.33
2022-12-25T01:08:36.809Z,54.35
2022-12-25T01:11:06.595Z,42.72
2022-12-25T01:13:35.070Z,44.00
2022-12-25T01:16:12.415Z,47.05
2022-12-25T01:18:39.099Z,49.20
2022-12-25T01:21:09.392Z,41.25
2022-12-25T01:23:38.005Z,37.67
2022-12-25T01:26:05.973Z,41.05
2022-12-25T01:28:32.426Z,44.45
2022-12-25T01:30:58.746Z,54.72
2022-12-25T01:33:25.065Z,36.53
2022-12-25T01:35:51.465Z,33.92
2022-12-25T01:38:17.901Z,39.08
2022-12-25T01:40:44.361Z,57.33
2022-12-25T01:43:56.420Z,47.83
2022-12-25T01:46:22.850Z,37.65
2022-12-25T01:48:50.093Z,43.08
2022-12-25T01:51:27.741Z,39.10
2022-12-25T01:53:57.719Z,38.65
2022-12-25T01:56:27.119Z,39.38
2022-12-25T01:58:56.261Z,31.23
2022-12-25T02:01:22.849Z,37.67
2022-12-25T02:03:49.311Z,32.00
2022-12-25T02:06:15.804Z,41.92
2022-12-25T02:08:43.014Z,35.17
2022-12-25T02:11:09.303Z,31.30
2022-12-25T02:13:35.733Z,33.13
2022-12-25T02:16:06.653Z,36.65
2022-12-25T02:18:52.340Z,31.88
2022-12-25T02:21:48.240Z,32.95
2022-12-25T02:24:42.831Z,35.92
2022-12-25T02:27:11.877Z,27.70
2022-12-25T02:30:03.245Z,35.47
2022-12-25T02:32:37.368Z,39.35
2022-12-25T02:35:03.645Z,35.88
2022-12-25T02:37:44.331Z,36.20
2022-12-25T02:40:52.633Z,45.22
2022-12-25T02:43:28.081Z,27.65
2022-12-25T02:45:57.069Z,38.95
2022-12-25T02:48:27.724Z,34.35
2022-12-25T02:50:56.436Z,27.52
2022-12-25T02:53:23.118Z,40.13
2022-12-25T02:55:50.669Z,41.97
2022-12-25T02:58:21.660Z,39.88
2022-12-25T03:00:52.393Z,43.70
2022-12-25T03:03:22.283Z,32.90
2022-12-25T03:05:49.759Z,44.33
2022-12-25T03:08:23.918Z,33.08
2022-12-25T03:10:59.660Z,40.15
2022-12-25T03:13:33.815Z,49.88
2022-12-25T03:16:00.418Z,48.40
2022-12-25T03:18:29.661Z,33.83
2022-12-25T03:20:56.067Z,43.17
2022-12-25T03:23:28.757Z,32.88
2022-12-25T03:25:55.207Z,36.20
2022-12-25T03:28:21.576Z,35.95
2022-12-25T03:31:09.973Z,34.10
2022-12-25T03:33:55.039Z,35.45
2022-12-25T03:36:34.995Z,31.70
2022-12-25T03:39:18.831Z,30.70
2022-12-25T03:41:51.244Z,48.40
2022-12-25T03:44:48.897Z,46.63
2022-12-25T03:47:22.797Z,35.35
2022-12-25T03:50:00.862Z,34.87
2022-12-25T03:52:29.754Z,33.40
2022-12-25T03:55:01.389Z,36.67
2022-12-25T03:57:27.907Z,27.42
2022-12-25T03:59:54.357Z,35.63
2022-12-25T04:02:20.961Z,39.42
2022-12-25T04:04:47.532Z,36.20
2022-12-25T04:07:13.969Z,41.28
2022-12-25T04:09:40.290Z,31.30
2022-12-25T04:12:06.882Z,33.95
2022-12-25T04:14:33.193Z,37.35
2022-12-25T04:16:59.496Z,31.38
2022-12-25T04:19:25.918Z,34.95
2022-12-25T04:21:52.216Z,38.75
2022-12-25T04:24:18.608Z,42.75
2022-12-25T04:26:45.051Z,36.80
2022-12-25T04:29:11.468Z,34.83
2022-12-25T04:31:37.908Z,36.88
2022-12-25T04:34:04.321Z,34.58
2022-12-25T04:36:30.752Z,37.10
2022-12-25T04:38:57.172Z,31.02
2022-12-25T04:41:23.512Z,36.30
2022-12-25T04:43:49.828Z,39.03
2022-12-25T04:46:16.161Z,32.88
2022-12-25T04:48:42.664Z,28.15
2022-12-25T04:51:10.925Z,32.65
2022-12-25T04:53:37.311Z,33.55
2022-12-25T04:56:03.676Z,36.80
2022-12-25T04:58:31.614Z,26.55
2022-12-25T05:01:01.718Z,28.73
2022-12-25T05:03:28.769Z,33.35
2022-12-25T05:05:55.423Z,31.13
2022-12-25T05:08:22.463Z,29.02
2022-12-25T05:10:49.200Z,32.60
2022-12-25T05:13:15.609Z,33.33
2022-12-25T05:15:43.220Z,31.48
2022-12-25T05:18:10.003Z,32.08
2022-12-25T05:20:40.303Z,40.50
2022-12-25T05:23:07.311Z,34.85
2022-12-25T05:25:33.657Z,24.70
2022-12-25T05:27:59.964Z,28.45
2022-12-25T05:30:26.316Z,28.52
2022-12-25T05:32:52.619Z,29.20
2022-12-25T05:35:18.946Z,31.50
2022-12-25T05:37:45.310Z,25.60
2022-12-25T05:40:11.819Z,24.83
2022-12-25T05:42:38.176Z,25.73
2022-12-25T05:45:04.955Z,26.63
2022-12-25T05:47:31.369Z,27.85
2022-12-25T05:49:57.707Z,24.20
2022-12-25T05:52:24.066Z,27.38
2022-12-25T05:54:50.377Z,29.85
2022-12-25T05:57:16.729Z,22.00
2022-12-25T05:59:43.109Z,27.13
2022-12-25T06:02:09.507Z,26.63
2022-12-25T06:04:35.912Z,31.60
2022-12-25T06:07:02.312Z,36.33
2022-12-25T06:09:28.669Z,30.48
2022-12-25T06:11:55.083Z,26.20
2022-12-25T06:14:21.392Z,21.38
2022-12-25T06:16:51.512Z,22.98
2022-12-25T06:19:18.513Z,26.75
2022-12-25T06:21:44.921Z,21.80
2022-12-25T06:24:16.142Z,27.48
2022-12-25T06:26:45.667Z,23.45
2022-12-25T06:29:12.094Z,25.20
2022-12-25T06:31:38.669Z,28.08
2022-12-25T06:34:05.074Z,21.58
2022-12-25T06:36:31.427Z,26.20
2022-12-25T06:39:00.923Z,25.65
2022-12-25T06:41:29.079Z,32.35
2022-12-25T06:43:58.357Z,25.60
2022-12-25T06:46:27.228Z,20.95
2022-12-25T06:48:53.737Z,21.00
2022-12-25T06:51:23.007Z,27.63
2022-12-25T06:53:50.934Z,27.13
2022-12-25T06:56:21.455Z,23.70
2022-12-25T06:58:50.510Z,23.83
2022-12-25T07:01:21.186Z,31.70
2022-12-25T07:03:50.455Z,26.67
2022-12-25T07:06:16.920Z,22.58
2022-12-25T07:08:43.229Z,27.15
2022-12-25T07:11:09.593Z,29.17
2022-12-25T07:13:35.979Z,30.63
2022-12-25T07:16:04.872Z,28.50
2022-12-25T07:18:32.384Z,33.10
2022-12-25T07:20:58.687Z,28.23
2022-12-25T07:23:26.142Z,27.17
2022-12-25T07:25:56.546Z,28.38
2022-12-25T07:28:22.996Z,28.63
2022-12-25T07:30:49.417Z,29.58
2022-12-25T07:33:16.275Z,25.38
2022-12-25T07:35:43.012Z,26.75
2022-12-25T07:38:09.815Z,29.00
2022-12-25T07:40:36.283Z,23.80
2022-12-25T07:43:02.734Z,28.38
2022-12-25T07:45:29.311Z,22.63
2022-12-25T07:47:56.929Z,20.02
2022-12-25T07:50:26.300Z,21.33
2022-12-25T07:52:52.748Z,27.38
2022-12-25T07:55:19.213Z,22.10
2022-12-25T07:57:45.602Z,21.73
2022-12-25T08:00:12.640Z,25.05
2022-12-25T08:02:39.838Z,26.65
2022-12-25T08:05:07.430Z,27.67
2022-12-25T08:07:33.967Z,25.63
2022-12-25T08:10:00.312Z,24.60
2022-12-25T08:12:26.660Z,21.92
2022-12-25T08:14:53.007Z,25.67
2022-12-25T08:17:19.464Z,27.83
2022-12-25T08:19:45.897Z,29.60
2022-12-25T08:22:12.204Z,27.13
2022-12-25T08:24:38.544Z,31.88
2022-12-25T08:27:04.997Z,22.17
2022-12-25T08:29:31.410Z,25.67
2022-12-25T08:31:57.809Z,20.45
2022-12-25T08:34:24.187Z,23.13
2022-12-25T08:36:50.618Z,26.98
2022-12-25T08:39:16.957Z,25.23
2022-12-25T08:41:43.317Z,24.20
2022-12-25T08:44:12.055Z,26.15
2022-12-25T08:46:38.506Z,26.00
2022-12-25T08:49:05.223Z,23.23
2022-12-25T08:51:31.886Z,24.73
2022-12-25T08:54:00.118Z,23.13
2022-12-25T08:56:27.409Z,21.25
2022-12-25T08:58:53.845Z,28.48
2022-12-25T09:01:20.347Z,29.73
2022-12-25T09:03:46.931Z,26.92
2022-12-25T09:06:15.125Z,23.88
2022-12-25T09:08:47.993Z,22.80
2022-12-25T09:11:15.699Z,22.75
2022-12-25T09:13:42.113Z,25.67
2022-12-25T09:16:11.496Z,25.85
2022-12-25T09:18:38.274Z,24.27
2022-12-25T09:21:08.063Z,22.25
2022-12-25T09:23:34.666Z,19.33
2022-12-25T09:26:05.500Z,28.67
2022-12-25T09:28:32.317Z,22.48
2022-12-25T09:30:59.448Z,18.33
2022-12-25T09:33:26.026Z,17.00
2022-12-25T09:36:04.873Z,18.38
2022-12-25T09:38:31.779Z,17.13
2022-12-25T09:41:16.887Z,19.17
2022-12-25T09:43:54.940Z,18.95
2022-12-25T09:46:24.796Z,18.73
2022-12-25T09:49:18.819Z,18.55
2022-12-25T09:51:48.622Z,21.67
2022-12-25T09:54:36.439Z,18.95
2022-12-25T09:57:03.760Z,20.13
2022-12-25T09:59:30.535Z,26.25
2022-12-25T10:02:18.677Z,22.13
2022-12-25T10:05:06.734Z,17.90
2022-12-25T10:07:50.993Z,20.42
2022-12-25T10:10:38.496Z,18.80
2022-12-25T10:13:20.363Z,20.60
2022-12-25T10:16:04.805Z,17.92
2022-12-25T10:18:38.608Z,16.75
2022-12-25T10:21:13.028Z,15.60
2022-12-25T10:24:05.454Z,17.70
2022-12-25T10:26:33.551Z,17.98
2022-12-25T10:29:13.880Z,18.48
2022-12-25T10:31:41.555Z,19.17
2022-12-25T10:34:10.368Z,18.42
2022-12-25T10:36:36.713Z,21.05
2022-12-25T10:39:03.528Z,20.00
2022-12-25T10:42:07.445Z,17.67
2022-12-25T10:44:33.830Z,17.00
2022-12-25T10:47:01.960Z,17.65
2022-12-25T10:49:31.756Z,18.45
2022-12-25T10:51:58.447Z,18.30
2022-12-25T10:54:30.755Z,15.65
2022-12-25T10:57:00.324Z,19.50
2022-12-25T10:59:35.112Z,18.48
2022-12-25T11:02:29.342Z,18.08
2022-12-25T11:05:03.965Z,15.75
2022-12-25T11:07:32.099Z,19.90
2022-12-25T11:10:05.898Z,14.13
2022-12-25T11:12:37.792Z,15.85
2022-12-25T11:15:26.726Z,20.83
2022-12-25T11:17:53.122Z,16.77
2022-12-25T11:20:20.400Z,26.30
2022-12-25T11:22:49.517Z,21.05
2022-12-25T11:25:23.561Z,19.40
2022-12-25T11:28:01.591Z,16.95
2022-12-25T11:30:33.542Z,18.48
2022-12-25T11:33:10.602Z,20.40
2022-12-25T11:35:49.762Z,18.13
2022-12-25T11:38:16.245Z,18.05
2022-12-25T11:40:49.084Z,20.60
2022-12-25T11:43:23.425Z,18.25
2022-12-25T11:46:01.492Z,21.70
2022-12-25T11:48:33.755Z,21.48
2022-12-25T11:51:03.264Z,17.65
2022-12-25T11:53:36.720Z,18.48
2022-12-25T11:56:11.356Z,21.88
2022-12-25T11:58:42.148Z,18.90
2022-12-25T12:01:18.486Z,19.63
2022-12-25T12:03:45.065Z,18.35
2022-12-25T12:06:27.763Z,19.23
2022-12-25T12:09:02.816Z,21.63
2022-12-25T12:11:45.403Z,20.13
2022-12-25T12:14:37.947Z,22.20
2022-12-25T12:17:04.545Z,25.63
2022-12-25T12:19:31.591Z,21.35
2022-12-25T12:22:03.731Z,28.33
2022-12-25T12:24:40.466Z,20.33
2022-12-25T12:27:22.347Z,22.92
2022-12-25T12:29:52.041Z,22.98
2022-12-25T12:32:27.362Z,19.73
2022-12-25T12:34:54.558Z,22.45
2022-12-25T12:37:33.986Z,23.02
2022-12-25T12:40:01.606Z,23.95
2022-12-25T12:42:31.181Z,21.27
2022-12-25T12:45:08.296Z,22.48
2022-12-25T12:47:41.039Z,24.35
2022-12-25T12:50:25.904Z,23.55
2022-12-25T12:52:52.350Z,22.73
2022-12-25T12:55:36.754Z,26.38
2022-12-25T12:58:05.941Z,25.90
2022-12-25T13:00:48.341Z,22.30
2022-12-25T13:03:27.468Z,22.60
2022-12-25T13:06:00.916Z,23.55
2022-12-25T13:08:51.487Z,21.20
2022-12-25T13:11:22.352Z,21.80
2022-12-25T13:13:52.693Z,24.05
2022-12-25T13:16:29.819Z,25.48
2022-12-25T13:18:56.719Z,19.30
2022-12-25T13:21:28.752Z,22.30
2022-12-25T13:24:05.402Z,19.90
2022-12-25T13:26:31.816Z,19.85
2022-12-25T13:28:58.234Z,20.42
2022-12-25T13:31:27.274Z,17.77
2022-12-25T13:34:05.524Z,15.27
2022-12-25T13:36:39.789Z,19.20
2022-12-25T13:39:15.635Z,19.05
2022-12-25T13:41:48.284Z,18.75
2022-12-25T13:44:24.743Z,18.75
2022-12-25T13:46:51.488Z,16.60
2022-12-25T13:49:20.427Z,21.25
2022-12-25T13:51:48.358Z,21.17
2022-12-25T13:54:16.337Z,19.10
2022-12-25T13:56:51.818Z,19.85
2022-12-25T13:59:20.835Z,18.25
2022-12-25T14:01:48.377Z,20.35
2022-12-25T14:04:21.533Z,20.55
2022-12-25T14:06:49.418Z,19.20
2022-12-25T14:09:16.737Z,17.65
2022-12-25T14:11:46.673Z,17.05
2022-12-25T14:14:18.876Z,17.92
2022-12-25T14:16:50.488Z,15.98
2022-12-25T14:19:25.995Z,18.58
2022-12-25T14:22:20.700Z,17.23
2022-12-25T14:24:47.660Z,14.53
2022-12-25T14:27:24.044Z,14.10
2022-12-25T14:29:53.052Z,16.20
2022-12-25T14:32:22.595Z,17.05
2022-12-25T14:34:53.756Z,15.98
2022-12-25T14:37:23.531Z,16.30
2022-12-25T14:40:05.658Z,15.82
2022-12-25T14:42:33.993Z,14.93
2022-12-25T14:45:06.896Z,16.40
2022-12-25T14:47:49.728Z,15.50
2022-12-25T14:50:25.870Z,13.15
2022-12-25T14:52:52.612Z,15.98
2022-12-25T14:55:24.751Z,21.45
2022-12-25T14:58:19.510Z,18.98
2022-12-25T15:00:54.926Z,18.87
2022-12-25T15:03:27.955Z,18.08
2022-12-25T15:06:25.248Z,21.27
2022-12-25T15:08:58.688Z,26.15
2022-12-25T15:11:25.350Z,22.05
2022-12-25T15:13:51.741Z,21.95
2022-12-25T15:16:25.813Z,21.15
2022-12-25T15:18:53.198Z,22.38
2022-12-25T15:21:25.891Z,22.60
2022-12-25T15:23:57.073Z,15.43
2022-12-25T15:26:24.999Z,17.63
2022-12-25T15:28:51.615Z,15.18
2022-12-25T15:31:21.846Z,13.45
2022-12-25T15:33:49.304Z,13.05
2022-12-25T15:36:15.699Z,15.93
2022-12-25T15:38:42.123Z,16.45
2022-12-25T15:41:20.387Z,16.58
2022-12-25T15:43:46.752Z,19.75
2022-12-25T15:46:13.101Z,21.92
2022-12-25T15:48:39.528Z,29.75
2022-12-25T15:51:05.831Z,26.25
2022-12-25T15:53:32.168Z,21.83
2022-12-25T15:55:58.580Z,24.40
2022-12-25T15:58:24.962Z,26.40
2022-12-25T16:00:51.364Z,32.88
2022-12-25T16:03:17.771Z,30.17
2022-12-25T16:05:44.200Z,24.27
2022-12-25T16:08:10.580Z,23.17
2022-12-25T16:10:39.118Z,19.35
2022-12-25T16:13:06.832Z,19.80
2022-12-25T16:15:33.321Z,15.55
2022-12-25T16:17:59.791Z,13.95
2022-12-25T16:20:26.155Z,20.15
2022-12-25T16:22:52.552Z,17.27
2022-12-25T16:25:19.347Z,17.75
2022-12-25T16:27:46.239Z,19.77
2022-12-25T16:30:15.319Z,17.83
2022-12-25T16:32:42.378Z,19.13
2022-12-25T16:35:09.984Z,19.98
2022-12-25T16:37:36.796Z,20.10
2022-12-25T16:40:03.680Z,19.25
2022-12-25T16:42:30.283Z,19.42
2022-12-25T16:44:56.624Z,16.80
2022-12-25T16:47:23.082Z,20.80
2022-12-25T16:49:49.484Z,17.85
2022-12-25T16:52:15.818Z,17.27
2022-12-25T16:54:42.200Z,17.73
2022-12-25T16:57:08.593Z,18.63
2022-12-25T16:59:35.020Z,19.92
2022-12-25T17:02:01.600Z,20.50
2022-12-25T17:04:28.384Z,23.48
2022-12-25T17:06:54.827Z,19.17
2022-12-25T17:09:21.192Z,20.73
2022-12-25T17:11:47.601Z,19.85
2022-12-25T17:14:13.947Z,20.65
2022-12-25T17:16:40.498Z,21.70
2022-12-25T17:19:15.910Z,20.25
2022-12-25T17:21:42.250Z,20.92
2022-12-25T17:24:09.363Z,18.08
2022-12-25T17:26:36.421Z,17.35
2022-12-25T17:29:02.899Z,21.23
2022-12-25T17:31:30.577Z,18.88
2022-12-25T17:33:57.096Z,22.00
2022-12-25T17:36:23.577Z,20.27
2022-12-25T17:38:50.082Z,21.25
2022-12-25T17:41:18.209Z,18.88
2022-12-25T17:43:44.977Z,18.48
2022-12-25T17:46:18.395Z,18.92
2022-12-25T17:48:45.089Z,22.70
2022-12-25T17:51:14.585Z,21.45
2022-12-25T17:53:43.562Z,23.40
2022-12-25T17:56:10.951Z,27.52
2022-12-25T17:58:37.976Z,24.23
2022-12-25T18:01:06.545Z,24.33
2022-12-25T18:03:33.698Z,26.65
2022-12-25T18:06:00.735Z,22.13
2022-12-25T18:08:30.203Z,19.45
2022-12-25T18:11:05.364Z,21.15
2022-12-25T18:13:32.154Z,22.42
2022-12-25T18:16:05.711Z,19.70
2022-12-25T18:18:32.950Z,21.63
2022-12-25T18:20:59.582Z,23.50
2022-12-25T18:23:26.231Z,22.88
2022-12-25T18:25:52.662Z,25.02
2022-12-25T18:28:19.541Z,21.55
2022-12-25T18:30:46.443Z,24.10
2022-12-25T18:33:12.879Z,21.60
2022-12-25T18:35:42.382Z,22.23
2022-12-25T18:38:09.974Z,24.85
2022-12-25T18:40:47.569Z,27.75
2022-12-25T18:43:15.178Z,25.10
2022-12-25T18:45:41.930Z,22.65
2022-12-25T18:48:09.774Z,23.67
2022-12-25T18:50:39.158Z,29.17
2022-12-25T18:53:06.908Z,27.35
2022-12-25T18:55:33.356Z,28.33
2022-12-25T18:57:59.753Z,25.98
2022-12-25T19:00:26.573Z,25.83
2022-12-25T19:02:57.310Z,23.98
2022-12-25T19:05:24.216Z,24.67
2022-12-25T19:07:50.814Z,29.95
2022-12-25T19:10:17.246Z,28.45
2022-12-25T19:12:43.779Z,28.38
2022-12-25T19:15:10.548Z,27.90
2022-12-25T19:17:36.970Z,28.42
2022-12-25T19:20:03.877Z,30.70
2022-12-25T19:22:30.172Z,25.98
2022-12-25T19:24:56.551Z,34.05
2022-12-25T19:27:22.903Z,29.17
2022-12-25T19:29:49.306Z,27.85
2022-12-25T19:32:15.655Z,27.88
2022-12-25T19:34:42.101Z,25.92
2022-12-25T19:37:08.488Z,26.38
2022-12-25T19:39:34.886Z,26.92
2022-12-25T19:42:01.271Z,32.95
2022-12-25T19:44:27.675Z,27.20
2022-12-25T19:46:54.105Z,24.02
2022-12-25T19:49:20.503Z,26.70
2022-12-25T19:51:46.950Z,25.80
2022-12-25T19:54:15.699Z,30.00
2022-12-25T19:56:43.113Z,32.40
2022-12-25T19:59:11.502Z,28.90
2022-12-25T20:01:38.306Z,29.17
2022-12-25T20:04:07.095Z,26.58
2022-12-25T20:06:34.603Z,26.80
2022-12-25T20:09:21.825Z,29.33
2022-12-25T20:11:48.460Z,29.25
2022-12-25T20:14:16.410Z,34.50
2022-12-25T20:16:43.698Z,28.20
2022-12-25T20:19:12.519Z,33.53
2022-12-25T20:21:39.091Z,32.22
2022-12-25T20:24:05.930Z,33.28
2022-12-25T20:26:32.368Z,27.05
2022-12-25T20:28:59.231Z,28.60
2022-12-25T20:31:32.797Z,26.27
2022-12-25T20:34:05.529Z,24.85
2022-12-25T20:36:36.806Z,24.30
2022-12-25T20:39:04.305Z,20.15
2022-12-25T20:41:30.734Z,19.95
2022-12-25T20:43:57.573Z,23.33
2022-12-25T20:46:25.338Z,21.67
2022-12-25T20:48:51.921Z,24.92
2022-12-25T20:51:20.828Z,21.25
2022-12-25T20:53:48.140Z,18.92
2022-12-25T20:56:18.704Z,20.67
2022-12-25T20:58:45.492Z,15.80
2022-12-25T21:01:14.459Z,18.02
2022-12-25T21:03:41.796Z,22.13
2022-12-25T21:06:09.045Z,19.02
2022-12-25T21:08:35.820Z,14.57
2022-12-25T21:11:02.533Z,15.68
2022-12-25T21:13:33.039Z,16.60
2022-12-25T21:15:59.813Z,15.27
2022-12-25T21:18:27.908Z,15.80
2022-12-25T21:20:56.867Z,17.08
2022-12-25T21:23:24.104Z,15.80
2022-12-25T21:25:50.452Z,16.95
2022-12-25T21:28:16.885Z,14.75
2022-12-25T21:30:46.442Z,16.20
2022-12-25T21:33:16.891Z,15.13
2022-12-25T21:35:43.751Z,16.88
2022-12-25T21:38:10.368Z,15.05
2022-12-25T21:40:38.094Z,14.80
2022-12-25T21:43:05.524Z,14.50
2022-12-25T21:45:33.805Z,15.70
2022-12-25T21:48:03.169Z,17.88
2022-12-25T21:50:35.972Z,18.27
2022-12-25T21:53:06.026Z,18.30
2022-12-25T21:55:32.468Z,16.65
2022-12-25T21:57:58.769Z,13.77
2022-12-25T22:00:25.070Z,15.30
2022-12-25T22:02:51.508Z,16.08
2022-12-25T22:05:17.977Z,16.52
2022-12-25T22:07:44.271Z,20.63
2022-12-25T22:10:10.561Z,23.95
2022-12-25T22:12:36.912Z,20.20
2022-12-25T22:15:05.186Z,24.38
2022-12-25T22:17:49.444Z,21.17
2022-12-25T22:20:32.968Z,24.88
2022-12-25T22:22:59.267Z,25.08
2022-12-25T22:25:29.001Z,22.52
2022-12-25T22:27:55.710Z,22.55
2022-12-25T22:30:26.218Z,23.08
2022-12-25T22:32:52.911Z,24.75
2022-12-25T22:35:19.566Z,20.15
2022-12-25T22:37:46.429Z,23.10
2022-12-25T22:40:15.324Z,21.20
2022-12-25T22:42:42.273Z,21.42
2022-12-25T22:45:09.704Z,24.88
2022-12-25T22:47:36.080Z,24.90
2022-12-25T22:50:02.410Z,27.90
2022-12-25T22:52:28.756Z,30.35
2022-12-25T22:54:55.242Z,33.47
2022-12-25T22:57:21.568Z,35.33
2022-12-25T22:59:47.889Z,35.22
2022-12-25T23:02:14.405Z,35.10
2022-12-25T23:04:40.932Z,39.03
2022-12-25T23:07:07.246Z,37.38
2022-12-25T23:09:34.082Z,43.58
2022-12-25T23:12:00.406Z,41.47
2022-12-25T23:14:27.580Z,36.50
2022-12-25T23:16:53.895Z,41.30
2022-12-25T23:19:20.200Z,40.80
2022-12-25T23:21:46.604Z,43.28
2022-12-25T23:24:12.987Z,41.10
2022-12-25T23:26:39.298Z,41.42
2022-12-25T23:29:05.658Z,39.65
2022-12-25T23:31:36.374Z,36.47
2022-12-25T23:34:04.170Z,41.28
2022-12-25T23:36:31.142Z,43.85
2022-12-25T23:39:00.372Z,38.60
2022-12-25T23:41:31.318Z,33.97
2022-12-25T23:43:57.653Z,35.22
2022-12-25T23:46:24.030Z,34.35
2022-12-25T23:48:50.391Z,33.58
2022-12-25T23:51:16.734Z,31.67
2022-12-25T23:53:43.158Z,33.80
2022-12-25T23:56:10.627Z,31.85
2022-12-25T23:58:37.106Z,32.65
